createdAt,value
2022-10-23T00:02:45.165Z,97521.00
2022-10-23T00:05:27.046Z,97515.00
2022-10-23T00:08:13.713Z,97522.00
2022-10-23T00:11:00.698Z,97528.00
2022-10-23T00:13:40.749Z,97534.00
2022-10-23T00:16:28.899Z,97524.00
2022-10-23T00:19:09.763Z,97527.00
2022-10-23T00:21:56.713Z,97522.00
2022-10-23T00:24:36.742Z,97505.00
2022-10-23T00:27:23.716Z,97511.00
2022-10-23T00:30:03.772Z,97518.00
2022-10-23T00:32:50.692Z,97502.00
2022-10-23T00:35:37.777Z,97511.00
2022-10-23T00:38:18.469Z,97504.00
2022-10-23T00:41:05.745Z,97528.00
2022-10-23T00:44:18.712Z,97525.00
2022-10-23T00:47:05.739Z,97522.00
2022-10-23T00:49:46.346Z,97503.00
2022-10-23T00:52:32.718Z,97512.00
2022-10-23T00:55:14.446Z,97521.00
2022-10-23T00:58:03.702Z,97516.00
2022-10-23T01:00:58.797Z,97513.00
2022-10-23T01:03:38.788Z,97509.00
2022-10-23T01:06:54.778Z,97518.00
2022-10-23T01:09:50.861Z,97518.00
2022-10-23T01:12:56.731Z,97503.00
2022-10-23T01:15:58.724Z,97504.00
2022-10-23T01:19:05.755Z,97498.00
2022-10-23T01:22:07.722Z,97526.00
2022-10-23T01:25:33.422Z,97512.00
2022-10-23T01:28:29.731Z,97510.00
2022-10-23T01:31:26.183Z,97509.00
2022-10-23T01:34:19.794Z,97511.00
2022-10-23T01:37:10.736Z,97522.00
2022-10-23T01:40:01.806Z,97500.00
2022-10-23T01:42:56.731Z,97512.00
2022-10-23T01:45:47.046Z,97514.00
2022-10-23T01:48:40.745Z,97501.00
2022-10-23T01:51:29.770Z,97505.00
2022-10-23T01:54:15.491Z,97494.00
2022-10-23T01:57:04.730Z,97484.00
2022-10-23T01:59:57.234Z,97481.00
2022-10-23T02:02:46.740Z,97478.00
2022-10-23T02:05:38.779Z,97485.00
2022-10-23T02:08:19.837Z,97479.00
2022-10-23T02:11:17.766Z,97482.00
2022-10-23T02:14:17.794Z,97478.00
2022-10-23T02:17:27.753Z,97460.00
2022-10-23T02:20:41.791Z,97456.00
2022-10-23T02:23:33.094Z,97459.00
2022-10-23T02:26:32.779Z,97449.00
2022-10-23T02:29:24.207Z,97439.00
2022-10-23T02:32:12.900Z,97443.00
2022-10-23T02:34:55.072Z,97427.00
2022-10-23T02:37:41.989Z,97433.00
2022-10-23T02:40:43.782Z,97437.00
2022-10-23T02:43:47.851Z,97450.00
2022-10-23T02:47:06.784Z,97446.00
2022-10-23T02:50:28.778Z,97431.00
2022-10-23T02:53:29.766Z,97441.00
2022-10-23T02:56:32.653Z,97430.00
2022-10-23T02:59:34.281Z,97425.00
2022-10-23T03:02:42.773Z,97413.00
2022-10-23T03:05:40.973Z,97414.00
2022-10-23T03:08:21.830Z,97419.00
2022-10-23T03:11:08.791Z,97412.00
2022-10-23T03:13:55.768Z,97401.00
2022-10-23T03:16:42.808Z,97409.00
2022-10-23T03:19:29.785Z,97399.00
2022-10-23T03:22:17.771Z,97399.00
2022-10-23T03:24:57.910Z,97400.00
2022-10-23T03:27:45.803Z,97408.00
2022-10-23T03:30:26.900Z,97406.00
2022-10-23T03:33:13.825Z,97397.00
2022-10-23T03:36:02.804Z,97397.00
2022-10-23T03:38:49.800Z,97398.00
2022-10-23T03:41:36.789Z,97394.00
2022-10-23T03:44:18.036Z,97391.00
2022-10-23T03:47:04.800Z,97373.00
2022-10-23T03:49:45.447Z,97374.00
2022-10-23T03:52:31.799Z,97351.00
2022-10-23T03:55:13.010Z,97373.00
2022-10-23T03:57:59.808Z,97362.00
2022-10-23T04:00:46.805Z,97344.00
2022-10-23T04:03:26.868Z,97354.00
2022-10-23T04:06:14.803Z,97376.00
2022-10-23T04:08:54.883Z,97359.00
2022-10-23T04:11:41.845Z,97357.00
2022-10-23T04:14:22.877Z,97360.00
2022-10-23T04:17:09.821Z,97364.00
2022-10-23T04:19:49.871Z,97363.00
2022-10-23T04:22:36.822Z,97380.00
2022-10-23T04:25:17.870Z,97375.00
2022-10-23T04:28:04.827Z,97358.00
2022-10-23T04:30:53.819Z,97371.00
2022-10-23T04:33:34.480Z,97358.00
2022-10-23T04:36:21.818Z,97349.00
2022-10-23T04:39:04.604Z,97357.00
2022-10-23T04:41:50.828Z,97359.00
2022-10-23T04:44:32.474Z,97354.00
2022-10-23T04:47:18.835Z,97363.00
2022-10-23T04:50:05.360Z,97340.00
2022-10-23T04:53:14.832Z,97354.00
2022-10-23T04:56:21.858Z,97352.00
2022-10-23T04:59:08.900Z,97352.00
2022-10-23T05:01:55.998Z,97330.00
2022-10-23T05:04:35.910Z,97340.00
2022-10-23T05:07:46.009Z,97351.00
2022-10-23T05:10:50.826Z,97343.00
2022-10-23T05:13:31.531Z,97343.00
2022-10-23T05:16:18.851Z,97336.00
2022-10-23T05:19:00.606Z,97330.00
2022-10-23T05:21:49.879Z,97322.00
2022-10-23T05:24:39.994Z,97339.00
2022-10-23T05:27:33.856Z,97316.00
2022-10-23T05:30:17.548Z,97326.00
2022-10-23T05:33:03.855Z,97325.00
2022-10-23T05:35:47.538Z,97306.00
2022-10-23T05:38:36.837Z,97311.00
2022-10-23T05:41:26.854Z,97304.00
2022-10-23T05:44:07.907Z,97316.00
2022-10-23T05:47:14.864Z,97312.00
2022-10-23T05:50:20.857Z,97316.00
2022-10-23T05:53:32.866Z,97308.00
2022-10-23T05:56:36.854Z,97314.00
2022-10-23T05:59:32.870Z,97311.00
2022-10-23T06:02:46.994Z,97314.00
2022-10-23T06:05:45.885Z,97300.00
2022-10-23T06:08:28.937Z,97310.00
2022-10-23T06:11:19.863Z,97313.00
2022-10-23T06:14:07.116Z,97292.00
2022-10-23T06:16:53.880Z,97286.00
2022-10-23T06:19:33.932Z,97288.00
2022-10-23T06:25:17.938Z,97278.00
2022-10-23T06:28:05.876Z,97279.00
2022-10-23T06:30:52.860Z,97261.00
2022-10-23T06:33:33.613Z,97281.00
2022-10-23T06:36:23.237Z,97255.00
2022-10-23T06:39:12.533Z,97253.00
2022-10-23T06:42:12.884Z,97267.00
2022-10-23T06:45:00.389Z,97256.00
2022-10-23T06:48:12.923Z,97269.00
2022-10-23T06:51:16.892Z,97287.00
2022-10-23T06:53:57.156Z,97267.00
2022-10-23T06:57:06.929Z,97270.00
2022-10-23T06:59:52.952Z,97275.00
2022-10-23T07:02:40.040Z,97267.00
2022-10-23T07:05:20.965Z,97270.00
2022-10-23T07:08:09.894Z,97266.00
2022-10-23T07:10:58.902Z,97262.00
2022-10-23T07:13:40.970Z,97269.00
2022-10-23T07:16:34.890Z,97274.00
2022-10-23T07:19:16.617Z,97264.00
2022-10-23T07:22:16.892Z,97260.00
2022-10-23T07:25:08.705Z,97280.00
2022-10-23T07:27:55.893Z,97259.00
2022-10-23T07:30:43.915Z,97262.00
2022-10-23T07:33:23.954Z,97244.00
2022-10-23T07:36:16.903Z,97264.00
2022-10-23T07:38:59.027Z,97264.00
2022-10-23T07:41:49.902Z,97268.00
2022-10-23T07:44:29.981Z,97259.00
2022-10-23T07:47:16.910Z,97266.00
2022-10-23T07:49:58.964Z,97262.00
2022-10-23T07:52:46.177Z,97263.00
2022-10-23T07:55:33.901Z,97275.00
2022-10-23T07:58:19.628Z,97267.00
2022-10-23T08:01:37.069Z,97258.00
2022-10-23T08:04:23.958Z,97255.00
2022-10-23T08:07:14.917Z,97259.00
2022-10-23T08:09:56.614Z,97255.00
2022-10-23T08:12:44.185Z,97254.00
2022-10-23T08:15:27.562Z,97230.00
2022-10-23T08:18:21.950Z,97236.00
2022-10-23T08:21:10.923Z,97230.00
2022-10-23T08:23:51.988Z,97230.00
2022-10-23T08:26:38.936Z,97228.00
2022-10-23T08:29:21.006Z,97231.00
2022-10-23T08:32:07.927Z,97218.00
2022-10-23T08:34:58.002Z,97232.00
2022-10-23T08:37:46.091Z,97226.00
2022-10-23T08:40:32.155Z,97221.00
2022-10-23T08:43:54.935Z,97222.00
2022-10-23T08:46:50.990Z,97224.00
2022-10-23T08:50:52.091Z,97220.00
2022-10-23T08:53:42.038Z,97221.00
2022-10-23T08:56:39.956Z,97214.00
2022-10-23T08:59:37.890Z,97215.00
2022-10-23T09:02:33.946Z,97202.00
2022-10-23T09:05:34.952Z,97197.00
2022-10-23T09:08:46.969Z,97216.00
2022-10-23T09:12:18.983Z,97218.00
2022-10-23T09:15:27.117Z,97211.00
2022-10-23T09:18:18.154Z,97219.00
2022-10-23T09:21:04.983Z,97211.00
2022-10-23T09:23:51.965Z,97189.00
2022-10-23T09:26:38.970Z,97193.00
2022-10-23T09:29:38.026Z,97195.00
2022-10-23T09:32:18.168Z,97185.00
2022-10-23T09:34:58.867Z,97187.00
2022-10-23T09:37:47.973Z,97172.00
2022-10-23T09:40:46.972Z,97183.00
2022-10-23T09:43:28.666Z,97165.00
2022-10-23T09:46:17.953Z,97172.00
2022-10-23T09:49:05.929Z,97171.00
2022-10-23T09:52:14.968Z,97159.00
2022-10-23T09:55:11.989Z,97150.00
2022-10-23T09:57:54.537Z,97148.00
2022-10-23T10:00:42.005Z,97152.00
2022-10-23T10:03:24.407Z,97153.00
2022-10-23T10:06:19.992Z,97149.00
2022-10-23T10:09:13.978Z,97157.00
2022-10-23T10:12:32.980Z,97139.00
2022-10-23T10:15:47.012Z,97145.00
2022-10-23T10:18:46.044Z,97145.00
2022-10-23T10:21:51.192Z,97151.00
2022-10-23T10:25:05.994Z,97137.00
2022-10-23T10:28:24.983Z,97137.00
2022-10-23T10:31:50.666Z,97139.00
2022-10-23T10:35:19.000Z,97132.00
2022-10-23T10:38:23.047Z,97147.00
2022-10-23T10:41:42.005Z,97118.00
2022-10-23T10:45:08.007Z,97117.00
2022-10-23T10:48:17.067Z,97140.00
2022-10-23T10:52:00.029Z,97135.00
2022-10-23T10:55:26.020Z,97129.00
2022-10-23T10:58:21.391Z,97110.00
2022-10-23T11:01:20.095Z,97109.00
2022-10-23T11:04:48.010Z,97102.00
2022-10-23T11:07:40.504Z,97086.00
2022-10-23T11:10:32.030Z,97097.00
2022-10-23T11:13:51.421Z,97070.00
2022-10-23T11:16:51.015Z,97076.00
2022-10-23T11:20:01.049Z,97061.00
2022-10-23T11:23:24.403Z,97053.00
2022-10-23T11:26:58.098Z,97046.00
2022-10-23T11:29:54.030Z,97049.00
2022-10-23T11:33:17.073Z,97036.00
2022-10-23T11:36:21.051Z,97041.00
2022-10-23T11:39:34.032Z,97053.00
2022-10-23T11:42:40.160Z,97016.00
2022-10-23T11:45:48.042Z,97018.00
2022-10-23T11:48:50.111Z,97062.00
2022-10-23T11:51:47.067Z,97072.00
2022-10-23T11:54:38.071Z,97060.00
2022-10-23T11:57:19.136Z,97060.00
2022-10-23T12:00:11.076Z,97065.00
2022-10-23T12:02:59.111Z,97067.00
2022-10-23T12:08:42.245Z,97054.00
2022-10-23T12:11:55.069Z,97030.00
2022-10-23T12:14:46.064Z,97042.00
2022-10-23T12:17:29.204Z,97037.00
2022-10-23T12:20:19.059Z,97035.00
2022-10-23T12:23:39.162Z,97026.00
2022-10-23T12:26:57.103Z,97009.00
2022-10-23T12:30:06.093Z,97018.00
2022-10-23T12:33:14.089Z,97013.00
2022-10-23T12:36:17.084Z,97012.00
2022-10-23T12:38:58.614Z,97008.00
2022-10-23T12:41:48.080Z,96988.00
2022-10-23T12:44:37.089Z,96983.00
2022-10-23T12:47:24.135Z,96968.00
2022-10-23T12:50:34.106Z,96957.00
2022-10-23T12:53:24.267Z,96965.00
2022-10-23T12:56:12.106Z,96961.00
2022-10-23T12:59:03.844Z,96947.00
2022-10-23T13:01:53.018Z,96947.00
2022-10-23T13:04:48.223Z,96945.00
2022-10-23T13:07:38.082Z,96936.00
2022-10-23T13:10:31.115Z,96951.00
2022-10-23T13:13:23.805Z,96949.00
2022-10-23T13:16:10.113Z,96946.00
2022-10-23T13:18:58.190Z,96946.00
2022-10-23T13:21:39.127Z,96928.00
2022-10-23T13:24:23.070Z,96943.00
2022-10-23T13:27:12.094Z,96946.00
2022-10-23T13:30:00.169Z,96934.00
2022-10-23T13:32:40.221Z,96931.00
2022-10-23T13:35:30.254Z,96930.00
2022-10-23T13:38:17.190Z,96924.00
2022-10-23T13:41:10.143Z,96923.00
2022-10-23T13:43:52.176Z,96915.00
2022-10-23T13:46:39.131Z,96910.00
2022-10-23T13:49:26.155Z,96912.00
2022-10-23T13:52:13.336Z,96911.00
2022-10-23T13:55:00.169Z,96905.00
2022-10-23T13:57:41.126Z,96891.00
2022-10-23T14:00:30.123Z,96887.00
2022-10-23T14:03:11.123Z,96883.00
2022-10-23T14:05:58.124Z,96891.00
2022-10-23T14:08:38.798Z,96883.00
2022-10-23T14:11:27.122Z,96889.00
2022-10-23T14:14:15.150Z,96893.00
2022-10-23T14:16:55.263Z,96881.00
2022-10-23T14:19:42.138Z,96874.00
2022-10-23T14:22:22.264Z,96871.00
2022-10-23T14:25:10.139Z,96853.00
2022-10-23T14:27:50.268Z,96861.00
2022-10-23T14:30:37.149Z,96864.00
2022-10-23T14:33:17.236Z,96866.00
2022-10-23T14:36:04.170Z,96870.00
2022-10-23T14:38:45.199Z,96861.00
2022-10-23T14:41:33.146Z,96872.00
2022-10-23T14:44:21.173Z,96850.00
2022-10-23T14:47:02.987Z,96848.00
2022-10-23T14:49:49.161Z,96852.00
2022-10-23T14:52:29.822Z,96832.00
2022-10-23T14:55:16.171Z,96835.00
2022-10-23T14:57:57.321Z,96818.00
2022-10-23T15:00:46.217Z,96827.00
2022-10-23T15:03:36.199Z,96813.00
2022-10-23T15:06:23.177Z,96813.00
2022-10-23T15:09:04.894Z,96814.00
2022-10-23T15:11:51.181Z,96810.00
2022-10-23T15:14:39.182Z,96809.00
2022-10-23T15:17:19.228Z,96800.00
2022-10-23T15:20:07.262Z,96788.00
2022-10-23T15:22:47.236Z,96804.00
2022-10-23T15:25:34.193Z,96778.00
2022-10-23T15:28:15.006Z,96793.00
2022-10-23T15:31:02.181Z,96787.00
2022-10-23T15:33:49.327Z,96770.00
2022-10-23T15:36:37.188Z,96769.00
2022-10-23T15:39:26.209Z,96757.00
2022-10-23T15:42:07.042Z,96777.00
2022-10-23T15:44:54.206Z,96776.00
2022-10-23T15:47:34.976Z,96777.00
2022-10-23T15:50:22.221Z,96785.00
2022-10-23T15:53:03.239Z,96786.00
2022-10-23T15:55:50.199Z,96794.00
2022-10-23T15:58:30.976Z,96803.00
2022-10-23T16:01:19.284Z,96790.00
2022-10-23T16:04:06.202Z,96788.00
2022-10-23T16:06:46.343Z,96790.00
2022-10-23T16:09:33.225Z,96776.00
2022-10-23T16:12:21.211Z,96764.00
2022-10-23T16:15:08.220Z,96767.00
2022-10-23T16:17:48.974Z,96780.00
2022-10-23T16:20:35.340Z,96780.00
2022-10-23T16:23:15.257Z,96774.00
2022-10-23T16:26:02.227Z,96767.00
2022-10-23T16:28:50.212Z,96765.00
2022-10-23T16:31:31.359Z,96770.00
2022-10-23T16:34:19.388Z,96761.00
2022-10-23T16:37:06.227Z,96763.00
2022-10-23T16:40:04.237Z,96792.00
2022-10-23T16:43:03.967Z,96814.00
2022-10-23T16:45:55.222Z,96805.00
2022-10-23T16:48:36.221Z,96814.00
2022-10-23T16:51:27.258Z,96819.00
2022-10-23T16:54:14.231Z,96823.00
2022-10-23T16:56:54.312Z,96843.00
2022-10-23T16:59:41.229Z,96850.00
2022-10-23T17:02:21.398Z,96857.00
2022-10-23T17:05:08.247Z,96854.00
2022-10-23T17:07:49.773Z,96854.00
2022-10-23T17:10:36.272Z,96857.00
2022-10-23T17:13:16.300Z,96868.00
2022-10-23T17:16:20.266Z,96893.00
2022-10-23T17:19:01.702Z,96886.00
2022-10-23T17:21:49.241Z,96895.00
2022-10-23T17:24:37.261Z,96895.00
2022-10-23T17:27:18.531Z,96895.00
2022-10-23T17:30:08.143Z,96914.00
2022-10-23T17:32:50.875Z,96963.00
2022-10-23T17:35:37.280Z,96972.00
2022-10-23T17:38:25.263Z,97000.00
2022-10-23T17:41:12.278Z,97004.00
2022-10-23T17:43:58.300Z,96999.00
2022-10-23T17:46:45.254Z,97018.00
2022-10-23T17:49:32.290Z,96988.00
2022-10-23T17:52:14.827Z,96985.00
2022-10-23T17:55:01.291Z,96956.00
2022-10-23T17:57:41.589Z,96915.00
2022-10-23T18:00:28.258Z,96897.00
2022-10-23T18:03:09.352Z,96928.00
2022-10-23T18:05:56.275Z,96958.00
2022-10-23T18:08:43.298Z,96987.00
2022-10-23T18:11:35.280Z,96973.00
2022-10-23T18:14:17.384Z,96966.00
2022-10-23T18:17:04.285Z,96921.00
2022-10-23T18:19:51.408Z,96886.00
2022-10-23T18:22:33.138Z,96833.00
2022-10-23T18:25:20.284Z,96804.00
2022-10-23T18:28:02.500Z,96805.00
2022-10-23T18:30:54.728Z,96786.00
2022-10-23T18:33:36.955Z,96799.00
2022-10-23T18:36:38.337Z,96793.00
2022-10-23T18:39:23.429Z,96790.00
2022-10-23T18:42:12.319Z,96777.00
2022-10-23T18:44:59.299Z,96790.00
2022-10-23T18:47:39.375Z,96777.00
2022-10-23T18:50:27.303Z,96783.00
2022-10-23T18:53:07.426Z,96791.00
2022-10-23T18:55:56.319Z,96800.00
2022-10-23T18:58:36.340Z,96811.00
2022-10-23T19:01:25.423Z,96808.00
2022-10-23T19:04:14.297Z,96796.00
2022-10-23T19:07:01.413Z,96797.00
2022-10-23T19:09:49.302Z,96778.00
2022-10-23T19:12:29.959Z,96784.00
2022-10-23T19:15:17.315Z,96769.00
2022-10-23T19:17:59.131Z,96774.00
2022-10-23T19:20:46.326Z,96754.00
2022-10-23T19:23:30.022Z,96764.00
2022-10-23T19:26:24.351Z,96785.00
2022-10-23T19:29:09.774Z,96779.00
2022-10-23T19:31:57.335Z,96798.00
2022-10-23T19:34:44.332Z,96797.00
2022-10-23T19:37:31.312Z,96803.00
2022-10-23T19:40:20.354Z,96803.00
2022-10-23T19:43:00.886Z,96807.00
2022-10-23T19:45:47.353Z,96808.00
2022-10-23T19:48:27.471Z,96791.00
2022-10-23T19:51:15.336Z,96802.00
2022-10-23T19:53:55.452Z,96795.00
2022-10-23T19:56:43.353Z,96798.00
2022-10-23T19:59:31.360Z,96788.00
2022-10-23T20:02:18.503Z,96795.00
2022-10-23T20:05:05.365Z,96795.00
2022-10-23T20:07:48.502Z,96784.00
2022-10-23T20:10:35.344Z,96796.00
2022-10-23T20:13:19.916Z,96790.00
2022-10-23T20:16:07.367Z,96788.00
2022-10-23T20:18:47.414Z,96781.00
2022-10-23T20:21:34.347Z,96807.00
2022-10-23T20:24:24.342Z,96817.00
2022-10-23T20:27:05.003Z,96803.00
2022-10-23T20:29:51.360Z,96819.00
2022-10-23T20:32:40.365Z,96812.00
2022-10-23T20:35:27.351Z,96808.00
2022-10-23T20:38:15.367Z,96809.00
2022-10-23T20:41:02.388Z,96816.00
2022-10-23T20:43:50.357Z,96808.00
2022-10-23T20:46:37.371Z,96792.00
2022-10-23T20:49:25.361Z,96812.00
2022-10-23T20:52:05.459Z,96804.00
2022-10-23T20:54:52.427Z,96817.00
2022-10-23T20:57:39.383Z,96824.00
2022-10-23T21:00:28.433Z,96816.00
2022-10-23T21:03:08.427Z,96806.00
2022-10-23T21:05:55.378Z,96808.00
2022-10-23T21:08:35.462Z,96822.00
2022-10-23T21:11:24.388Z,96829.00
2022-10-23T21:14:12.394Z,96834.00
2022-10-23T21:16:52.671Z,96842.00
2022-10-23T21:19:39.392Z,96828.00
2022-10-23T21:22:19.450Z,96832.00
2022-10-23T21:25:08.399Z,96827.00
2022-10-23T21:27:48.638Z,96821.00
2022-10-23T21:30:35.406Z,96856.00
2022-10-23T21:33:15.462Z,96843.00
2022-10-23T21:36:18.737Z,96855.00
2022-10-23T21:39:09.413Z,96864.00
2022-10-23T21:41:50.042Z,96867.00
2022-10-23T21:44:36.432Z,96874.00
2022-10-23T21:47:17.030Z,96868.00
2022-10-23T21:50:03.412Z,96880.00
2022-10-23T21:52:44.300Z,96874.00
2022-10-23T21:55:32.402Z,96873.00
2022-10-23T21:58:13.013Z,96871.00
2022-10-23T22:00:59.576Z,96879.00
2022-10-23T22:03:46.423Z,96880.00
2022-10-23T22:06:41.414Z,96890.00
2022-10-23T22:09:29.432Z,96888.00
2022-10-23T22:12:09.467Z,96878.00
2022-10-23T22:14:56.417Z,96879.00
2022-10-23T22:17:36.472Z,96869.00
2022-10-23T22:20:24.410Z,96885.00
2022-10-23T22:23:04.500Z,96865.00
2022-10-23T22:25:51.425Z,96879.00
2022-10-23T22:28:38.472Z,96871.00
2022-10-23T22:31:26.361Z,96873.00
2022-10-23T22:34:26.841Z,96863.00
2022-10-23T22:37:14.121Z,96857.00
2022-10-23T22:40:04.423Z,96855.00
2022-10-23T22:42:51.639Z,96857.00
2022-10-23T22:45:38.428Z,96847.00
2022-10-23T22:48:19.075Z,96853.00
2022-10-23T22:51:07.299Z,96846.00
2022-10-23T22:53:55.443Z,96849.00
2022-10-23T22:56:37.522Z,96853.00
2022-10-23T22:59:24.450Z,96852.00
2022-10-23T23:02:11.456Z,96857.00
2022-10-23T23:04:58.434Z,96847.00
2022-10-23T23:07:38.545Z,96859.00
2022-10-23T23:10:25.649Z,96862.00
2022-10-23T23:13:05.534Z,96862.00
2022-10-23T23:15:52.476Z,96863.00
2022-10-23T23:18:40.450Z,96868.00
2022-10-23T23:21:21.827Z,96871.00
2022-10-23T23:24:09.447Z,96869.00
2022-10-23T23:26:50.243Z,96874.00
2022-10-23T23:29:36.463Z,96880.00
2022-10-23T23:32:17.090Z,96871.00
2022-10-23T23:35:04.488Z,96873.00
2022-10-23T23:37:45.143Z,96862.00
2022-10-23T23:40:31.477Z,96870.00
2022-10-23T23:43:12.101Z,96863.00
2022-10-23T23:45:59.465Z,96866.00
2022-10-23T23:48:48.467Z,96871.00
2022-10-23T23:51:31.613Z,96858.00
2022-10-23T23:54:18.476Z,96868.00
2022-10-23T23:56:59.773Z,96852.00
2022-10-23T23:59:48.501Z,96841.00
